Latest Weather Observations for Mount Hotham AWS

IDV60801

Issued at 3:05 am EDT Sunday 23 November 2014 (issued every 30 minutes, with the page automatically refreshed every 10 minutes)

About weather observations | Map of weather stations | Latest weather observations for VIC | Other Formats
Station Details ID: 083085 Name: MOUNT HOTHAM Lat: -36.98 Lon: 147.13 Height: 1849.0 m
Data from the previous 72 hours. | See also: Recent months at Mount Hotham AWS
Date/Time
EDT
Temp
°C
App
Temp
°C
Dew
Point
Rel
Hum
%
Delta-T
°C
Wind Press
QNH
hPa
Press
MSL
hPa
Rain
since 9 am
mm
Dir
 
Spd
km/h
Gust
km/h
Spd
kts
Gust
kts
23/03:00am 9.7 5.0 9.1 96 0.3 W 24 35 13 19 - - 4.6
23/02:30am 9.5 5.1 8.9 96 0.3 WSW 22 33 12 18 - - 4.6
23/02:01am 9.8 2.8 8.4 91 0.8 SW 35 54 19 29 - - 4.6
23/02:00am 9.8 2.4 8.2 90 0.9 SW 37 54 20 29 - - 4.6
23/01:41am 10.5 4.7 7.9 84 1.4 SSW 28 46 15 25 - - 4.6
23/01:30am 9.4 4.5 8.5 94 0.5 SSW 24 41 13 22 - - 4.6
23/01:00am 9.2 3.7 9.1 99 0.1 W 28 41 15 22 - - 3.2
23/12:34am 9.7 2.8 8.9 95 0.4 SSW 35 59 19 32 - - 2.2
23/12:30am 9.5 3.3 9.4 99 0.1 SSW 32 46 17 25 - - 2.2
23/12:21am 9.6 3.2 9.5 99 0.1 WSW 33 54 18 29 - - 2.0
23/12:00am 9.3 3.8 9.2 99 0.1 WNW 28 41 15 22 - - 1.6
 
Date/Time
EDT
Temp
°C
App
Temp
°C
Dew
Point
Rel
Hum
%
Delta-T
°C
Wind Press
QNH
hPa
Press
MSL
hPa
Rain
since 9 am
mm
Dir
 
Spd
km/h
Gust
km/h
Spd
kts
Gust
kts
22/11:30pm 9.8 1.3 9.2 96 0.3 WNW 44 67 24 36 - - 0.6
22/11:22pm 10.2 1.2 9.0 92 0.7 NW 46 67 25 36 - - 0.2
22/11:00pm 10.2 1.0 8.0 86 1.2 NW 46 57 25 31 - - 0.0
22/10:38pm 10.7 1.4 7.6 81 1.7 NW 46 72 25 39 - - 0.0
22/10:30pm 10.8 1.8 7.1 78 2.0 NNW 44 57 24 31 - - 0.0
22/10:19pm 10.9 1.4 6.5 74 2.3 NW 46 65 25 35 - - 0.0
22/10:00pm 10.9 1.5 5.4 69 2.8 NNW 44 57 24 31 - - 0.0
22/09:32pm 12.5 2.4 3.5 54 4.5 NW 46 65 25 35 - - 0.0
22/09:30pm 12.7 2.2 3.4 53 4.6 NW 48 65 26 35 - - 0.0
22/09:00pm 13.2 1.3 2.4 48 5.3 NNW 54 74 29 40 - - 0.0
22/08:34pm 13.4 1.8 2.0 46 5.5 NW 52 70 28 38 - - 0.0
22/08:30pm 13.3 1.4 1.9 46 5.5 NNW 54 70 29 38 - - 0.0
22/08:00pm 13.6 1.0 1.6 44 5.8 NNW 57 76 31 41 - - 0.0
22/07:32pm 13.2 2.8 2.1 47 5.4 NNW 46 69 25 37 - - 0.0
22/07:30pm 13.1 2.7 2.1 47 5.3 NNW 46 61 25 33 - - 0.0
22/07:01pm 13.1 3.3 2.1 47 5.3 NNW 43 61 23 33 - - 0.0
22/07:00pm 13.2 3.4 2.1 47 5.4 NNW 43 57 23 31 - - 0.0
22/06:32pm 13.0 4.1 2.8 50 5.0 NNW 39 57 21 31 - - 0.0
22/06:30pm 13.0 4.2 3.4 52 4.8 NNW 39 54 21 29 - - 0.0
22/06:00pm 13.3 5.2 3.4 51 4.9 NNW 35 44 19 24 - - 0.0
22/05:57pm 13.3 4.8 3.4 51 4.9 NNW 37 56 20 30 - - 0.0
22/05:30pm 13.2 3.9 3.0 50 5.0 NNW 41 57 22 31 - - 0.0
22/05:18pm 13.3 4.6 2.2 47 5.4 NNW 37 56 20 30 - - 0.0
22/05:00pm 13.1 4.1 2.4 48 5.2 NNW 39 52 21 28 - - 0.0
22/04:30pm 13.0 2.5 1.7 46 5.4 NNW 46 67 25 36 - - 0.0
22/04:00pm 13.5 4.8 4.1 53 4.8 N 39 48 21 26 - - 0.0
22/03:34pm 13.0 5.6 4.2 55 4.4 NNW 32 50 17 27 - - 0.0
22/03:30pm 13.0 6.4 4.2 55 4.4 NW 28 39 15 21 - - 0.0
22/03:00pm 14.2 8.0 4.2 51 5.1 WNW 26 39 14 21 - - 0.0
22/02:30pm 13.7 6.0 2.3 46 5.6 WNW 32 48 17 26 - - 0.0
22/02:00pm 14.9 7.4 3.7 47 5.7 WNW 32 50 17 27 - - 0.0
22/01:54pm 15.4 8.9 4.8 49 5.5 WNW 28 50 15 27 - - 0.0
22/01:30pm 14.8 8.8 3.6 47 5.7 WNW 24 35 13 19 - - 0.0
22/01:15pm 16.0 9.4 4.4 46 6.0 WNW 28 46 15 25 - - 0.0
22/01:00pm 14.8 8.7 3.0 45 5.9 NW 24 37 13 20 - - 0.0
22/12:30pm 14.7 8.0 3.5 47 5.6 NNW 28 39 15 21 - - 0.0
22/12:00pm 13.1 6.2 2.6 49 5.1 NNW 28 41 15 22 - - 0.0
22/11:30am 13.8 7.9 3.9 51 5.0 NW 24 37 13 20 - - 0.0
22/11:00am 12.5 5.0 1.5 47 5.2 NNW 30 44 16 24 - - 0.0
22/10:30am 12.2 5.1 1.2 47 5.2 NNW 28 39 15 21 - - 0.0
22/10:00am 11.5 4.6 2.5 54 4.3 NNW 28 41 15 22 - - 0.0
22/09:30am 10.8 3.2 2.6 57 3.9 NNW 32 43 17 23 - - 0.0
22/09:00am 10.1 2.2 2.2 58 3.7 NNW 33 44 18 24 - - 0.4
22/08:30am 9.7 1.4 2.1 59 3.6 NNW 35 41 19 22 - - 0.4
22/08:00am 9.1 0.8 2.4 63 3.2 NNW 35 46 19 25 - - 0.4
22/07:30am 8.9 1.1 2.7 65 2.9 NNW 33 41 18 22 - - 0.4
22/07:00am 8.0 -0.7 2.3 67 2.7 NNW 37 46 20 25 - - 0.4
22/06:30am 8.2 -0.5 2.2 66 2.8 NNW 37 44 20 24 - - 0.4
22/06:00am 8.0 0.3 2.3 67 2.7 NNW 32 43 17 23 - - 0.4
22/05:30am 7.9 -0.4 2.0 66 2.7 NNW 35 41 19 22 - - 0.4
22/05:00am 7.7 -0.6 2.4 69 2.5 NNW 35 43 19 23 - - 0.4
22/04:30am 7.7 -0.9 2.6 70 2.4 NNW 37 44 20 24 - - 0.4
22/04:00am 7.4 -0.9 2.1 69 2.5 NNW 35 44 19 24 - - 0.4
22/03:30am 7.2 -0.8 1.9 69 2.4 NW 33 43 18 23 - - 0.4
22/03:00am 7.4 0.0 2.1 69 2.5 NW 30 39 16 21 - - 0.4
22/02:30am 7.3 0.2 3.4 76 1.9 NW 30 41 16 22 - - 0.4
22/02:00am 7.6 1.3 4.0 78 1.7 NW 26 33 14 18 - - 0.4
22/01:30am 7.9 1.6 3.9 76 1.9 NW 26 32 14 17 - - 0.4
22/01:00am 8.0 2.1 4.0 76 1.9 NW 24 30 13 16 - - 0.4
22/12:30am 7.4 1.5 4.0 79 1.6 NW 24 30 13 16 - - 0.4
22/12:00am 7.9 2.5 4.3 78 1.8 NW 22 28 12 15 - - 0.4
 
Date/Time
EDT
Temp
°C
App
Temp
°C
Dew
Point
Rel
Hum
%
Delta-T
°C
Wind Press
QNH
hPa
Press
MSL
hPa
Rain
since 9 am
mm
Dir
 
Spd
km/h
Gust
km/h
Spd
kts
Gust
kts
21/11:30pm 7.7 2.8 4.1 78 1.7 NW 19 20 10 11 - - 0.4
21/11:00pm 8.0 2.6 4.6 79 1.7 NW 22 28 12 15 - - 0.4
21/10:30pm 7.8 3.0 4.6 80 1.6 NW 19 22 10 12 - - 0.4
21/10:00pm 8.0 3.6 4.6 79 1.7 NW 17 20 9 11 - - 0.4
21/09:30pm 8.2 3.5 5.0 80 1.6 NW 19 22 10 12 - - 0.4
21/09:00pm 8.7 3.8 4.9 77 1.9 NNW 20 26 11 14 - - 0.4
21/08:30pm 9.0 3.8 5.4 78 1.8 NW 22 28 12 15 - - 0.4
21/08:00pm 9.9 3.6 5.9 76 2.1 NW 28 35 15 19 - - 0.4
21/07:30pm 10.6 5.1 6.0 73 2.4 NW 24 33 13 18 - - 0.4
21/07:00pm 11.7 6.3 4.7 62 3.5 WNW 22 33 12 18 - - 0.4
21/06:30pm 11.9 5.7 4.4 60 3.8 W 26 37 14 20 - - 0.4
21/06:00pm 12.5 5.8 5.4 62 3.7 WNW 30 43 16 23 - - 0.4
21/05:30pm 12.9 6.7 6.0 63 3.6 WNW 28 39 15 21 - - 0.4
21/05:00pm 12.8 6.6 6.2 64 3.5 W 28 43 15 23 - - 0.4
21/04:30pm 12.9 6.0 6.5 65 3.4 W 32 46 17 25 - - 0.4
21/04:00pm 11.7 6.1 7.0 73 2.5 WNW 26 41 14 22 - - 0.4
21/03:30pm 11.5 5.7 7.8 78 2.0 WNW 28 50 15 27 - - 0.4
21/03:05pm 11.5 5.5 7.2 75 2.3 WNW 28 46 15 25 - - 0.4
21/03:00pm 11.9 7.3 8.2 78 2.0 WNW 22 37 12 20 - - 0.4
21/02:34pm 13.0 6.8 7.7 70 2.9 WNW 30 48 16 26 - - 0.4
21/02:30pm 11.9 5.6 7.4 74 2.4 WNW 30 43 16 23 - - 0.4
21/02:00pm 11.9 6.2 8.4 79 1.9 WNW 28 39 15 21 - - 0.4
21/01:30pm 10.6 5.0 8.7 88 1.0 WNW 28 39 15 21 - - 0.4
21/01:04pm 10.6 4.6 8.5 87 1.1 WNW 30 50 16 27 - - 0.4
21/01:00pm 10.7 5.2 9.3 91 0.8 WNW 28 39 15 21 - - 0.4
21/12:35pm 10.0 3.9 9.9 99 0.1 WNW 32 52 17 28 - - 0.4
21/12:30pm 9.8 4.1 9.7 99 0.1 WNW 30 46 16 25 - - 0.4
21/12:13pm 10.5 4.6 10.3 99 0.1 NW 32 50 17 27 - - 0.4
21/12:00pm 9.3 2.9 9.2 99 0.1 WNW 33 46 18 25 - - 0.4
21/11:30am 9.1 2.6 9.0 99 0.1 NW 33 48 18 26 - - 0.4
21/11:00am 8.6 0.9 8.5 99 0.1 WNW 39 59 21 32 - - 0.4
21/10:30am 8.6 0.5 8.5 99 0.1 WNW 41 59 22 32 - - 0.4
21/10:01am 8.6 1.6 8.5 99 0.1 WNW 35 63 19 34 - - 0.4
21/10:00am 8.5 1.9 8.4 99 0.1 WNW 33 48 18 26 - - 0.4
21/09:40am 8.6 0.9 8.5 99 0.1 NW 39 57 21 31 - - 0.2
21/09:30am 8.6 0.5 8.5 99 0.1 NW 41 56 22 30 - - 0.2
21/09:00am 8.5 0.0 8.4 99 0.1 NW 43 57 23 31 - - 3.0
21/08:30am 8.5 0.7 8.4 99 0.1 NW 39 59 21 32 - - 2.4
21/08:00am 8.2 0.0 8.1 99 0.1 NW 41 63 22 34 - - 2.0
21/07:30am 8.0 -0.3 7.9 99 0.1 NW 41 61 22 33 - - 1.8
21/07:18am 7.9 0.0 7.8 99 0.1 NW 39 57 21 31 - - 1.8
21/07:00am 7.8 -0.1 7.7 99 0.1 NW 39 52 21 28 - - 1.8
21/06:41am 7.7 0.5 7.6 99 0.1 NW 35 54 19 29 - - 1.8
21/06:30am 7.8 0.2 7.7 99 0.1 NW 37 52 20 28 - - 1.8
21/06:00am 7.7 -0.3 7.6 99 0.1 NNW 39 54 21 29 - - 1.8
21/05:30am 7.6 -1.3 7.5 99 0.1 NW 44 57 24 31 - - 1.8
21/05:11am 7.9 0.0 7.8 99 0.1 NW 39 57 21 31 - - 1.8
21/05:00am 8.1 -0.2 7.7 97 0.2 NW 41 54 22 29 - - 1.8
21/04:43am 8.4 -0.6 7.3 93 0.6 NW 44 63 24 34 - - 1.8
21/04:30am 8.5 -0.5 7.3 92 0.6 NNW 44 61 24 33 - - 1.8
21/04:00am 8.8 -0.1 6.9 88 1.0 NNW 43 56 23 30 - - 1.8
21/03:50am 9.0 0.1 6.8 86 1.1 NW 43 61 23 33 - - 1.8
21/03:30am 9.1 0.5 6.7 85 1.2 NW 41 54 22 29 - - 1.8
21/03:00am 9.4 -0.1 6.5 82 1.5 NW 46 61 25 33 - - 1.8
21/02:30am 9.7 0.1 6.2 79 1.8 NW 46 63 25 34 - - 1.8
21/02:00am 9.8 0.2 6.3 79 1.8 NW 46 70 25 38 - - 1.8
21/01:30am 9.4 -2.0 6.7 83 1.4 NW 56 78 30 42 - - 1.8
21/01:00am 9.6 -2.0 6.7 82 1.5 NNW 57 93 31 50 - - 1.8
21/12:32am 8.8 -2.6 7.4 91 0.7 NNW 57 82 31 44 - - 1.8
21/12:30am 8.6 -2.6 7.7 94 0.5 NNW 56 69 30 37 - - 1.8
21/12:00am 8.8 -2.6 7.6 92 0.6 NW 57 83 31 45 - - 1.2
 
Date/Time
EDT
Temp
°C
App
Temp
°C
Dew
Point
Rel
Hum
%
Delta-T
°C
Wind Press
QNH
hPa
Press
MSL
hPa
Rain
since 9 am
mm
Dir
 
Spd
km/h
Gust
km/h
Spd
kts
Gust
kts
20/11:55pm 8.6 -2.8 7.7 94 0.5 NW 57 72 31 39 - - 1.2
20/11:30pm 8.3 0.3 7.5 95 0.4 NW 39 57 21 31 - - 0.8
20/11:00pm 9.5 0.8 6.2 80 1.7 WNW 41 72 22 39 - - 0.0
20/10:53pm 10.0 1.7 6.0 76 2.1 WNW 39 72 21 39 - - 0.0
20/10:39pm 10.5 3.2 5.3 70 2.6 NW 33 54 18 29 - - 0.0
20/10:30pm 10.7 3.9 5.0 68 2.9 WNW 30 43 16 23 - - 0.0
20/10:04pm 11.3 4.7 4.3 62 3.5 NW 28 46 15 25 - - 0.0
20/10:00pm 11.4 4.4 4.2 61 3.6 NW 30 41 16 22 - - 0.0
20/09:30pm 11.2 5.7 4.0 61 3.6 NW 22 30 12 16 - - 0.0
20/09:00pm 11.4 7.5 3.4 58 3.9 SW 13 19 7 10 - - 0.0
20/08:30pm 11.9 6.6 3.2 55 4.3 W 20 26 11 14 - - 0.0
20/08:00pm 12.7 5.8 2.6 50 4.9 SW 28 35 15 19 - - 0.0
20/07:30pm 13.6 5.8 1.6 44 5.8 NW 32 44 17 24 - - 0.0
20/07:00pm 13.6 5.3 1.9 45 5.7 WNW 35 56 19 30 - - 0.0
20/06:32pm 13.7 6.3 2.0 45 5.7 WNW 30 48 16 26 - - 0.0
20/06:30pm 13.7 5.9 1.7 44 5.8 WNW 32 48 17 26 - - 0.0
20/06:00pm 14.1 6.3 1.7 43 6.0 WNW 32 46 17 25 - - 0.0
20/05:30pm 14.4 6.1 2.0 43 6.1 WNW 35 57 19 31 - - 0.0
20/05:25pm 14.4 5.3 2.0 43 6.1 WNW 39 57 21 31 - - 0.0
20/05:23pm 14.4 6.0 1.7 42 6.2 WNW 35 44 19 24 - - 0.0
20/05:04pm 14.8 5.1 0.6 38 6.8 NW 41 70 22 38 - - 0.0
20/05:00pm 14.5 5.4 1.8 42 6.2 NNW 39 52 21 28 - - 0.0
20/04:34pm 14.6 6.2 1.5 41 6.3 NNW 35 54 19 29 - - 0.0
20/04:30pm 14.7 6.4 2.3 43 6.1 NNW 35 44 19 24 - - 0.0
20/04:10pm 14.8 5.6 1.3 40 6.5 NNW 39 57 21 31 - - 0.0
20/04:00pm 15.3 7.3 1.8 40 6.6 NNW 33 50 18 27 - - 0.0
20/03:30pm 15.2 6.1 2.1 41 6.4 N 39 50 21 27 - - 0.0
20/03:00pm 14.8 5.7 2.0 42 6.3 NNW 39 57 21 31 - - 0.0
20/02:53pm 14.4 5.2 1.3 41 6.3 NNW 39 57 21 31 - - 0.0
20/02:30pm 15.6 6.7 3.1 43 6.3 NNW 39 54 21 29 - - 0.0
20/02:00pm 14.2 4.3 1.5 42 6.1 NNW 43 56 23 30 - - 0.0
20/01:30pm 15.9 6.4 2.0 39 6.9 NNW 41 56 22 30 - - 0.0
20/01:00pm 15.3 6.2 2.1 41 6.5 NNW 39 54 21 29 - - 0.0
20/12:54pm 15.4 6.0 2.6 42 6.4 NNW 41 59 22 32 - - 0.0
20/12:30pm 14.8 4.0 2.0 42 6.3 NNW 48 63 26 34 - - 0.0
20/12:00pm 14.2 3.3 1.2 41 6.2 NNW 48 63 26 34 - - 0.0
20/11:30am 13.7 2.7 0.7 41 6.1 NNW 48 61 26 33 - - 0.0
20/11:00am 13.6 1.9 -1.6 35 6.8 NNW 50 69 27 37 - - 0.0
20/10:49am 13.8 2.6 -0.6 37 6.6 NNW 48 70 26 38 - - 0.0
20/10:30am 13.5 2.7 -0.2 39 6.3 NNW 46 63 25 34 - - 0.0
20/10:08am 13.0 2.4 -1.7 36 6.6 NNW 44 63 24 34 - - 0.0
20/10:00am 13.2 2.6 -1.5 36 6.6 NNW 44 59 24 32 - - 0.0
20/09:30am 12.4 1.9 -1.1 39 6.1 NNW 44 56 24 30 - - 0.0
20/09:00am 11.5 0.9 -1.6 40 5.8 NNW 44 57 24 31 - - 0.0
20/08:30am 11.3 1.3 -1.5 41 5.7 NNW 41 54 22 29 - - 0.0
20/08:00am 10.8 -0.1 -1.6 42 5.4 NNW 46 65 25 35 - - 0.0
20/07:50am 10.8 0.4 -1.9 41 5.5 NNW 43 61 23 33 - - 0.0
20/07:30am 10.6 0.2 -1.8 42 5.4 NW 43 56 23 30 - - 0.0
20/07:00am 10.2 -0.2 -1.8 43 5.2 NW 43 57 23 31 - - 0.0
20/06:50am 10.4 0.0 -1.9 42 5.3 NW 43 65 23 35 - - 0.0
20/06:30am 9.9 0.3 -1.8 44 5.1 NNW 39 48 21 26 - - 0.0
20/06:00am 9.7 -0.3 -1.9 44 5.0 NW 41 52 22 28 - - 0.0
20/05:30am 9.6 -1.0 -1.7 45 4.9 NNW 44 56 24 30 - - 0.0
20/05:00am 9.3 -0.3 -1.4 47 4.6 NW 39 50 21 27 - - 0.0
20/04:30am 9.3 -0.3 -1.4 47 4.6 NW 39 52 21 28 - - 0.0
20/04:00am 9.2 1.0 -1.2 48 4.5 NW 32 43 17 23 - - 0.0
20/03:30am 9.0 1.1 -1.4 48 4.5 NW 30 37 16 20 - - 0.0

Other Formats:

Comma delimited format used in spreadsheet applications
http://www.bom.gov.au/fwo/IDV60801/IDV60801.94906.axf

JavaScript Object Notation format (JSON) in row-major order
http://www.bom.gov.au/fwo/IDV60801/IDV60801.94906.json